createdAt,value
2018-04-10T00:02:14.187Z,83.10
2018-04-10T00:04:41.659Z,83.10
2018-04-10T00:07:09.113Z,83.00
2018-04-10T00:09:36.571Z,83.20
2018-04-10T00:12:04.678Z,83.60
2018-04-10T00:14:32.890Z,83.70
2018-04-10T00:17:00.339Z,83.70
2018-04-10T00:19:28.552Z,83.70
2018-04-10T00:21:56.006Z,83.60
2018-04-10T00:24:23.454Z,83.90
2018-04-10T00:26:50.898Z,84.00
2018-04-10T00:29:18.339Z,84.20
2018-04-10T00:31:45.789Z,84.40
2018-04-10T00:34:13.230Z,84.40
2018-04-10T00:36:40.709Z,84.60
2018-04-10T00:39:08.175Z,84.70
2018-04-10T00:41:35.646Z,84.90
2018-04-10T00:44:03.483Z,85.10
2018-04-10T00:46:30.923Z,85.20
2018-04-10T00:48:58.378Z,85.40
2018-04-10T00:51:25.963Z,85.40
2018-04-10T00:53:53.402Z,85.70
2018-04-10T00:56:21.131Z,85.80
2018-04-10T00:58:48.587Z,86.20
2018-04-10T01:01:16.315Z,86.40
2018-04-10T01:03:43.758Z,86.40
2018-04-10T01:06:11.214Z,86.50
2018-04-10T01:08:38.664Z,86.60
2018-04-10T01:11:06.102Z,86.90
2018-04-10T01:13:33.584Z,87.10
2018-04-10T01:16:01.822Z,87.80
2018-04-10T01:18:29.285Z,87.60
2018-04-10T01:20:57.054Z,88.00
2018-04-10T01:23:24.483Z,88.20
2018-04-10T01:25:51.944Z,88.60
2018-04-10T01:28:19.391Z,88.70
2018-04-10T01:30:46.830Z,88.50
2018-04-10T01:33:14.293Z,88.50
2018-04-10T01:35:41.722Z,88.60
2018-04-10T01:38:09.342Z,88.60
2018-04-10T01:40:36.771Z,88.80
2018-04-10T01:43:04.223Z,89.00
2018-04-10T01:45:31.703Z,89.40
2018-04-10T01:47:59.127Z,89.80
2018-04-10T01:50:26.579Z,90.00
2018-04-10T01:52:54.019Z,90.10
2018-04-10T01:55:22.590Z,90.00
2018-04-10T01:57:50.066Z,90.10
2018-04-10T02:00:17.507Z,90.10
2018-04-10T02:02:45.151Z,90.10
2018-04-10T02:05:12.791Z,90.10
2018-04-10T02:07:40.234Z,90.20
2018-04-10T02:10:25.296Z,90.40
2018-04-10T02:15:25.640Z,90.60
2018-04-10T02:17:53.239Z,90.90
2018-04-10T02:20:20.679Z,91.00
2018-04-10T02:22:48.128Z,91.30
2018-04-10T02:25:15.588Z,91.40
2018-04-10T02:27:43.032Z,91.70
2018-04-10T02:30:10.492Z,91.80
2018-04-10T02:32:37.936Z,91.90
2018-04-10T02:35:05.561Z,92.00
2018-04-10T02:37:33.011Z,92.30
2018-04-10T02:40:00.452Z,92.30
2018-04-10T02:42:27.924Z,92.20
2018-04-10T02:44:55.385Z,92.10
2018-04-10T02:47:22.856Z,92.10
2018-04-10T02:49:50.293Z,92.20
2018-04-10T02:52:18.004Z,92.20
2018-04-10T02:54:45.763Z,92.20
2018-04-10T02:57:13.199Z,92.20
2018-04-10T02:59:40.651Z,92.20
2018-04-10T03:02:08.083Z,92.20
2018-04-10T03:04:36.323Z,92.20
2018-04-10T03:07:03.829Z,92.30
2018-04-10T03:09:31.281Z,92.40
2018-04-10T03:11:58.749Z,92.40
2018-04-10T03:14:26.579Z,92.50
2018-04-10T03:16:54.015Z,92.60
2018-04-10T03:19:21.461Z,92.70
2018-04-10T03:21:48.909Z,92.70
2018-04-10T03:24:16.369Z,92.70
2018-04-10T03:26:43.799Z,92.70
2018-04-10T03:29:11.240Z,92.80
2018-04-10T03:31:38.713Z,92.90
2018-04-10T03:34:06.159Z,93.10
2018-04-10T03:36:33.635Z,93.20
2018-04-10T03:39:01.065Z,93.20
2018-04-10T03:41:28.585Z,93.30
2018-04-10T03:43:56.044Z,93.40
2018-04-10T03:46:23.488Z,93.40
2018-04-10T03:48:50.964Z,93.50
2018-04-10T03:51:18.433Z,93.50
2018-04-10T03:53:45.895Z,93.80
2018-04-10T03:56:16.754Z,93.30
2018-04-10T04:01:17.041Z,93.30
2018-04-10T04:03:44.496Z,93.30
2018-04-10T04:06:11.943Z,93.30
2018-04-10T04:08:40.334Z,93.40
2018-04-10T04:11:07.757Z,93.40
2018-04-10T04:13:35.217Z,93.40
2018-04-10T04:16:02.716Z,93.50
2018-04-10T04:18:42.172Z,93.70
2018-04-10T04:21:21.548Z,93.70
2018-04-10T04:23:49.012Z,93.90
2018-04-10T04:26:16.448Z,94.00
2018-04-10T04:28:43.886Z,93.70
2018-04-10T04:31:11.340Z,94.00
2018-04-10T04:33:41.559Z,94.10
2018-04-10T04:36:09.148Z,94.00
2018-04-10T04:38:36.592Z,93.90
2018-04-10T04:41:04.043Z,93.70
2018-04-10T04:43:31.520Z,93.70
2018-04-10T04:45:59.499Z,93.70
2018-04-10T04:48:26.961Z,93.70
2018-04-10T04:50:54.540Z,93.60
2018-04-10T04:53:21.979Z,93.60
2018-04-10T04:55:49.483Z,93.60
2018-04-10T04:58:16.939Z,93.80
2018-04-10T05:00:44.421Z,94.20
2018-04-10T05:03:11.872Z,94.10
2018-04-10T05:05:39.319Z,94.40
2018-04-10T05:08:08.621Z,94.80
2018-04-10T05:10:36.063Z,94.80
2018-04-10T05:13:03.527Z,94.90
2018-04-10T05:15:31.033Z,94.80
2018-04-10T05:17:58.681Z,94.80
2018-04-10T05:20:26.143Z,94.80
2018-04-10T05:22:53.633Z,94.70
2018-04-10T05:25:21.069Z,94.70
2018-04-10T05:27:48.595Z,94.70
2018-04-10T05:30:16.036Z,94.60
2018-04-10T05:32:43.491Z,94.50
2018-04-10T05:35:10.958Z,94.50
2018-04-10T05:37:38.391Z,94.50
2018-04-10T05:40:05.920Z,94.40
2018-04-10T05:42:33.354Z,94.40
2018-04-10T05:45:00.812Z,94.40
2018-04-10T05:47:28.255Z,94.40
2018-04-10T05:49:55.736Z,94.30
2018-04-10T05:52:23.191Z,94.40
2018-04-10T05:54:50.634Z,94.40
2018-04-10T05:57:18.086Z,94.40
2018-04-10T05:59:45.547Z,94.40
2018-04-10T06:02:12.988Z,94.40
2018-04-10T06:04:40.448Z,94.40
2018-04-10T06:07:07.898Z,94.40
2018-04-10T06:09:35.363Z,94.40
2018-04-10T06:12:02.845Z,94.30
2018-04-10T06:14:30.300Z,94.20
2018-04-10T06:16:58.539Z,94.00
2018-04-10T06:19:25.999Z,94.00
2018-04-10T06:21:53.470Z,93.90
2018-04-10T06:24:20.931Z,93.60
2018-04-10T06:26:48.386Z,93.50
2018-04-10T06:29:15.861Z,93.40
2018-04-10T06:31:43.305Z,93.40
2018-04-10T06:34:10.778Z,93.30
2018-04-10T06:36:38.455Z,93.30
2018-04-10T06:39:05.999Z,93.10
2018-04-10T06:41:33.486Z,93.00
2018-04-10T06:44:00.936Z,93.00
2018-04-10T06:46:28.400Z,93.00
2018-04-10T06:48:55.844Z,93.00
2018-04-10T06:51:23.278Z,92.90
2018-04-10T06:53:50.759Z,92.80
2018-04-10T06:56:18.207Z,92.70
2018-04-10T06:58:45.663Z,92.70
2018-04-10T07:01:13.375Z,92.70
2018-04-10T07:03:41.592Z,92.50
2018-04-10T07:06:09.811Z,92.60
2018-04-10T07:08:37.258Z,92.60
2018-04-10T07:11:04.723Z,92.80
2018-04-10T07:13:32.170Z,93.00
2018-04-10T07:15:59.620Z,93.00
2018-04-10T07:18:27.084Z,93.20
2018-04-10T07:20:54.585Z,93.20
2018-04-10T07:23:22.012Z,93.30
2018-04-10T07:25:49.486Z,93.40
2018-04-10T07:28:16.931Z,93.50
2018-04-10T07:30:44.395Z,93.50
2018-04-10T07:33:11.870Z,93.60
2018-04-10T07:35:39.336Z,93.60
2018-04-10T07:38:06.773Z,93.60
2018-04-10T07:40:34.217Z,93.60
2018-04-10T07:43:01.843Z,93.70
2018-04-10T07:45:29.290Z,93.50
2018-04-10T07:47:56.754Z,93.40
2018-04-10T07:50:24.202Z,93.30
2018-04-10T07:52:51.912Z,93.20
2018-04-10T07:55:19.374Z,93.10
2018-04-10T07:57:46.815Z,93.00
2018-04-10T08:00:14.402Z,93.10
2018-04-10T08:02:42.264Z,93.10
2018-04-10T08:05:09.811Z,93.10
2018-04-10T08:07:37.280Z,93.00
2018-04-10T08:10:04.718Z,93.00
2018-04-10T08:12:32.178Z,93.00
2018-04-10T08:14:59.636Z,93.00
2018-04-10T08:17:27.119Z,92.80
2018-04-10T08:19:54.567Z,92.60
2018-04-10T08:22:22.006Z,92.30
2018-04-10T08:24:49.472Z,92.00
2018-04-10T08:27:16.915Z,92.00
2018-04-10T08:29:44.351Z,91.80
2018-04-10T08:32:12.766Z,91.50
2018-04-10T08:34:40.210Z,91.40
2018-04-10T08:37:08.451Z,90.90
2018-04-10T08:39:35.887Z,90.90
2018-04-10T08:42:03.363Z,90.40
2018-04-10T08:44:30.815Z,90.00
2018-04-10T08:46:58.383Z,89.40
2018-04-10T08:49:25.835Z,89.10
2018-04-10T08:51:53.451Z,88.90
2018-04-10T08:54:20.983Z,88.70
2018-04-10T08:56:48.459Z,87.10
2018-04-10T08:59:15.984Z,86.40
2018-04-10T09:01:43.459Z,85.30
2018-04-10T09:04:10.913Z,84.40
2018-04-10T09:06:38.364Z,83.70
2018-04-10T09:09:05.807Z,83.50
2018-04-10T09:11:33.272Z,83.50
2018-04-10T09:14:00.740Z,80.50
2018-04-10T09:16:28.191Z,79.30
2018-04-10T09:18:55.806Z,78.20
2018-04-10T09:21:23.363Z,77.20
2018-04-10T09:23:50.816Z,75.30
2018-04-10T09:26:18.274Z,74.50
2018-04-10T09:28:45.727Z,73.70
2018-04-10T09:31:13.272Z,72.20
2018-04-10T09:33:42.081Z,70.60
2018-04-10T09:36:09.568Z,69.00
2018-04-10T09:38:37.041Z,67.80
2018-04-10T09:41:04.486Z,66.00
2018-04-10T09:43:31.960Z,64.70
2018-04-10T09:45:59.407Z,63.90
2018-04-10T09:48:26.875Z,63.50
2018-04-10T09:50:54.358Z,62.60
2018-04-10T09:53:22.095Z,63.40
2018-04-10T09:55:49.562Z,64.20
2018-04-10T09:58:17.015Z,63.40
2018-04-10T10:00:44.459Z,63.60
2018-04-10T10:03:11.910Z,64.10
2018-04-10T10:05:39.347Z,64.80
2018-04-10T10:08:06.824Z,65.00
2018-04-10T10:10:34.348Z,64.20
2018-04-10T10:13:02.123Z,64.10
2018-04-10T10:15:29.572Z,63.40
2018-04-10T10:17:57.151Z,62.70
2018-04-10T10:20:24.598Z,61.30
2018-04-10T10:22:52.069Z,60.50
2018-04-10T10:25:19.515Z,58.30
2018-04-10T10:27:46.995Z,57.70
2018-04-10T10:30:14.440Z,57.30
2018-04-10T10:32:41.900Z,56.00
2018-04-10T10:35:09.548Z,54.50
2018-04-10T10:37:37.623Z,54.30
2018-04-10T10:40:05.071Z,53.30
2018-04-10T10:42:32.522Z,52.10
2018-04-10T10:44:59.959Z,51.80
2018-04-10T10:47:27.411Z,51.90
2018-04-10T10:49:55.628Z,51.90
2018-04-10T10:52:23.078Z,51.80
2018-04-10T10:54:50.519Z,50.00
2018-04-10T10:57:17.966Z,49.00
2018-04-10T10:59:45.427Z,48.30
2018-04-10T11:02:12.863Z,47.60
2018-04-10T11:04:40.314Z,46.80
2018-04-10T11:07:07.801Z,45.30
2018-04-10T11:09:35.280Z,45.20
2018-04-10T11:12:02.715Z,43.80
2018-04-10T11:14:30.160Z,43.70
2018-04-10T11:16:57.718Z,43.40
2018-04-10T11:19:25.163Z,42.40
2018-04-10T11:21:52.624Z,42.20
2018-04-10T11:24:20.123Z,42.30
2018-04-10T11:26:48.324Z,41.20
2018-04-10T11:29:16.545Z,41.00
2018-04-10T11:31:44.009Z,40.90
2018-04-10T11:34:11.624Z,41.50
2018-04-10T11:36:39.089Z,40.00
2018-04-10T11:39:06.629Z,40.10
2018-04-10T11:41:34.093Z,40.20
2018-04-10T11:44:01.562Z,40.30
2018-04-10T11:46:28.988Z,40.40
2018-04-10T11:48:56.453Z,40.10
2018-04-10T11:51:24.184Z,39.80
2018-04-10T11:53:51.999Z,40.20
2018-04-10T11:56:19.542Z,40.20
2018-04-10T11:58:47.330Z,41.00
2018-04-10T12:01:14.832Z,41.20
2018-04-10T12:03:43.232Z,40.90
2018-04-10T12:06:10.694Z,40.80
2018-04-10T12:08:38.146Z,40.50
2018-04-10T12:11:05.677Z,40.90
2018-04-10T12:13:33.144Z,40.10
2018-04-10T12:16:00.594Z,39.80
2018-04-10T12:18:28.044Z,39.10
2018-04-10T12:20:56.022Z,39.30
2018-04-10T12:23:23.508Z,39.60
2018-04-10T12:25:51.038Z,39.10
2018-04-10T12:28:18.524Z,39.00
2018-04-10T12:30:45.955Z,39.10
2018-04-10T12:33:13.943Z,38.90
2018-04-10T12:35:41.398Z,38.80
2018-04-10T12:38:08.959Z,37.80
2018-04-10T12:40:36.455Z,37.90
2018-04-10T12:43:03.934Z,36.80
2018-04-10T12:45:31.367Z,36.70
2018-04-10T12:47:58.915Z,36.80
2018-04-10T12:50:26.372Z,36.20
2018-04-10T12:52:53.811Z,36.00
2018-04-10T12:55:21.399Z,36.00
2018-04-10T12:57:48.840Z,35.70
2018-04-10T13:00:16.291Z,35.10
2018-04-10T13:02:43.747Z,34.70
2018-04-10T13:05:11.202Z,34.30
2018-04-10T13:07:38.700Z,33.80
2018-04-10T13:10:06.159Z,33.70
2018-04-10T13:12:33.604Z,33.60
2018-04-10T13:15:01.055Z,33.00
2018-04-10T13:17:28.495Z,32.90
2018-04-10T13:19:56.712Z,32.30
2018-04-10T13:22:24.155Z,32.20
2018-04-10T13:24:51.603Z,32.40
2018-04-10T13:27:19.064Z,32.00
2018-04-10T13:29:46.501Z,32.50
2018-04-10T13:32:13.969Z,31.90
2018-04-10T13:34:41.399Z,32.30
2018-04-10T13:37:08.958Z,32.80
2018-04-10T13:39:36.402Z,32.80
2018-04-10T13:42:03.836Z,33.10
2018-04-10T13:44:31.290Z,34.00
2018-04-10T13:46:59.496Z,34.10
2018-04-10T13:49:27.061Z,34.10
2018-04-10T13:51:54.491Z,33.80
2018-04-10T13:54:21.995Z,32.70
2018-04-10T13:56:49.403Z,32.30
2018-04-10T13:59:17.225Z,32.50
2018-04-10T14:01:44.663Z,33.00
2018-04-10T14:04:12.110Z,32.80
2018-04-10T14:06:40.639Z,32.60
2018-04-10T14:09:08.112Z,32.50
2018-04-10T14:11:35.564Z,32.20
2018-04-10T14:14:03.003Z,32.80
2018-04-10T14:16:30.681Z,33.60
2018-04-10T14:18:58.299Z,33.90
2018-04-10T14:21:25.901Z,34.40
2018-04-10T14:23:53.348Z,34.40
2018-04-10T14:26:20.784Z,34.80
2018-04-10T14:28:48.240Z,34.50
2018-04-10T14:31:15.690Z,35.00
2018-04-10T14:33:43.144Z,35.60
2018-04-10T14:36:10.768Z,36.20
2018-04-10T14:38:38.211Z,36.60
2018-04-10T14:41:05.669Z,36.80
2018-04-10T14:43:33.489Z,37.30
2018-04-10T14:46:00.935Z,37.60
2018-04-10T14:48:28.372Z,38.90
2018-04-10T14:50:55.818Z,40.00
2018-04-10T14:53:23.283Z,40.40
2018-04-10T14:55:50.719Z,41.20
2018-04-10T14:58:18.384Z,42.00
2018-04-10T15:00:45.931Z,42.30
2018-04-10T15:03:13.465Z,42.60
2018-04-10T15:05:40.913Z,42.70
2018-04-10T15:08:08.351Z,43.40
2018-04-10T15:10:35.859Z,43.70
2018-04-10T15:13:03.296Z,43.80
2018-04-10T15:15:30.744Z,43.70
2018-04-10T15:17:58.199Z,44.90
2018-04-10T15:20:26.427Z,46.60
2018-04-10T15:22:53.892Z,46.50
2018-04-10T15:25:21.334Z,47.50
2018-04-10T15:27:48.935Z,48.00
2018-04-10T15:30:16.407Z,48.00
2018-04-10T15:32:43.853Z,48.40
2018-04-10T15:35:11.324Z,48.60
2018-04-10T15:37:38.878Z,48.60
2018-04-10T15:40:06.339Z,49.10
2018-04-10T15:42:33.814Z,49.40
2018-04-10T15:45:01.260Z,49.40
2018-04-10T15:47:28.715Z,49.80
2018-04-10T15:49:56.159Z,50.40
2018-04-10T15:52:23.604Z,50.30
2018-04-10T15:54:51.119Z,50.50
2018-04-10T15:57:18.567Z,50.90
2018-04-10T15:59:46.020Z,51.20
2018-04-10T16:02:13.464Z,51.50
2018-04-10T16:04:40.904Z,51.90
2018-04-10T16:07:08.363Z,52.10
2018-04-10T16:09:35.800Z,51.80
2018-04-10T16:12:04.091Z,52.10
2018-04-10T16:14:31.535Z,52.40
2018-04-10T16:16:58.975Z,53.00
2018-04-10T16:19:26.620Z,52.90
2018-04-10T16:21:54.081Z,53.00
2018-04-10T16:24:21.530Z,52.80
2018-04-10T16:26:48.972Z,53.20
2018-04-10T16:29:16.981Z,54.40
2018-04-10T16:31:45.367Z,56.20
2018-04-10T16:34:12.801Z,58.20
2018-04-10T16:36:40.255Z,59.30
2018-04-10T16:39:07.730Z,60.30
2018-04-10T16:41:35.197Z,61.50
2018-04-10T16:44:02.878Z,62.00
2018-04-10T16:46:30.330Z,62.60
2018-04-10T16:48:57.847Z,62.10
2018-04-10T16:51:25.443Z,62.10
2018-04-10T16:53:52.892Z,62.30
2018-04-10T16:56:20.388Z,62.70
2018-04-10T16:58:47.787Z,62.70
2018-04-10T17:01:15.245Z,62.90
2018-04-10T17:03:42.725Z,61.90
2018-04-10T17:06:10.248Z,61.30
2018-04-10T17:08:37.777Z,61.20
2018-04-10T17:11:05.192Z,60.90
2018-04-10T17:13:32.663Z,60.80
2018-04-10T17:16:00.119Z,61.10
2018-04-10T17:18:27.583Z,60.90
2018-04-10T17:20:54.997Z,60.90
2018-04-10T17:23:22.440Z,61.40
2018-04-10T17:25:49.902Z,61.60
2018-04-10T17:28:17.346Z,61.60
2018-04-10T17:30:44.852Z,61.70
2018-04-10T17:33:12.344Z,61.30
2018-04-10T17:35:39.788Z,61.60
2018-04-10T17:38:07.851Z,61.80
2018-04-10T17:40:35.297Z,62.10
2018-04-10T17:43:02.748Z,62.10
2018-04-10T17:45:30.207Z,62.20
2018-04-10T17:47:57.915Z,62.40
2018-04-10T17:50:25.370Z,62.20
2018-04-10T17:52:53.169Z,62.40
2018-04-10T17:55:20.601Z,62.70
2018-04-10T17:57:48.352Z,63.10
2018-04-10T18:00:15.795Z,63.20
2018-04-10T18:02:43.255Z,63.20
2018-04-10T18:05:10.754Z,63.30
2018-04-10T18:07:38.200Z,63.40
2018-04-10T18:10:05.671Z,63.70
2018-04-10T18:12:33.115Z,63.60
2018-04-10T18:15:00.906Z,63.40
2018-04-10T18:17:28.380Z,63.50
2018-04-10T18:19:55.825Z,63.50
2018-04-10T18:22:23.315Z,63.60
2018-04-10T18:24:50.765Z,63.70
2018-04-10T18:27:18.212Z,64.00
2018-04-10T18:29:45.662Z,64.30
2018-04-10T18:32:13.159Z,64.80
2018-04-10T18:34:40.596Z,65.60
2018-04-10T18:37:08.048Z,65.90
2018-04-10T18:39:35.809Z,66.40
2018-04-10T18:42:03.252Z,66.70
2018-04-10T18:44:30.686Z,66.90
2018-04-10T18:46:58.144Z,67.00
2018-04-10T18:49:25.591Z,67.30
2018-04-10T18:51:53.044Z,67.50
2018-04-10T18:54:22.003Z,67.10
2018-04-10T18:56:49.448Z,67.00
2018-04-10T18:59:16.915Z,66.70
2018-04-10T19:01:44.378Z,67.00
2018-04-10T19:04:11.870Z,66.80
2018-04-10T19:06:39.308Z,66.90
2018-04-10T19:09:06.753Z,66.90
2018-04-10T19:11:34.225Z,66.40
2018-04-10T19:14:01.791Z,66.80
2018-04-10T19:16:29.381Z,66.90
2018-04-10T19:18:56.824Z,66.90
2018-04-10T19:21:24.269Z,66.40
2018-04-10T19:23:51.743Z,66.20
2018-04-10T19:26:19.453Z,64.90
2018-04-10T19:28:46.909Z,64.90
2018-04-10T19:31:14.359Z,64.60
2018-04-10T19:33:42.845Z,64.60
2018-04-10T19:36:10.304Z,64.50
2018-04-10T19:38:37.747Z,64.30
2018-04-10T19:41:05.202Z,64.60
2018-04-10T19:43:32.647Z,65.00
2018-04-10T19:46:02.081Z,65.60
2018-04-10T19:48:29.555Z,65.60
2018-04-10T19:50:56.987Z,65.80
2018-04-10T19:53:24.675Z,66.00
2018-04-10T19:55:52.116Z,66.30
2018-04-10T19:58:19.578Z,66.30
2018-04-10T20:00:47.036Z,66.60
2018-04-10T20:03:14.480Z,66.60
2018-04-10T20:05:42.163Z,66.80
2018-04-10T20:08:09.595Z,66.90
2018-04-10T20:10:37.041Z,67.90
2018-04-10T20:13:04.699Z,70.70
2018-04-10T20:15:32.140Z,71.00
2018-04-10T20:17:59.607Z,71.40
2018-04-10T20:20:27.058Z,72.70
2018-04-10T20:22:54.495Z,73.60
2018-04-10T20:25:21.959Z,74.00
2018-04-10T20:27:49.410Z,74.30
2018-04-10T20:30:16.858Z,75.50
2018-04-10T20:32:44.508Z,76.10
2018-04-10T20:35:11.935Z,77.20
2018-04-10T20:37:39.405Z,78.60
2018-04-10T20:40:08.362Z,80.40
2018-04-10T20:42:35.816Z,80.30
2018-04-10T20:45:03.261Z,81.80
2018-04-10T20:47:30.703Z,82.80
2018-04-10T20:49:58.951Z,85.40
2018-04-10T20:52:26.433Z,85.30
2018-04-10T20:54:53.875Z,88.30
2018-04-10T20:57:21.354Z,88.10
2018-04-10T20:59:48.799Z,90.00
2018-04-10T21:02:16.251Z,90.00
2018-04-10T21:04:43.699Z,90.50
2018-04-10T21:07:11.192Z,91.10
2018-04-10T21:09:38.646Z,91.10
2018-04-10T21:12:06.107Z,91.20
2018-04-10T21:14:33.564Z,91.40
2018-04-10T21:17:01.633Z,91.40
2018-04-10T21:19:29.096Z,91.20
2018-04-10T21:21:56.547Z,91.70
2018-04-10T21:24:23.999Z,92.50
2018-04-10T21:26:51.503Z,92.50
2018-04-10T21:29:19.343Z,92.80
2018-04-10T21:31:46.932Z,93.00
2018-04-10T21:34:14.364Z,93.20
2018-04-10T21:36:41.804Z,93.20
2018-04-10T21:39:09.256Z,93.20
2018-04-10T21:41:36.708Z,93.20
2018-04-10T21:44:04.433Z,92.90
2018-04-10T21:46:31.870Z,92.30
2018-04-10T21:48:59.321Z,92.30
2018-04-10T21:51:26.784Z,92.40
2018-04-10T21:53:54.233Z,92.60
2018-04-10T21:56:21.704Z,92.70
2018-04-10T21:58:49.182Z,92.70
2018-04-10T22:01:16.653Z,92.70
2018-04-10T22:03:44.102Z,92.80
2018-04-10T22:06:11.558Z,92.90
2018-04-10T22:08:39.027Z,92.80
2018-04-10T22:11:06.480Z,92.60
2018-04-10T22:13:33.933Z,92.50
2018-04-10T22:16:01.383Z,92.40
2018-04-10T22:18:28.971Z,92.30
2018-04-10T22:20:56.428Z,92.10
2018-04-10T22:23:23.867Z,92.00
2018-04-10T22:25:51.318Z,92.10
2018-04-10T22:28:18.771Z,92.20
2018-04-10T22:30:46.215Z,92.00
2018-04-10T22:33:13.627Z,92.20
2018-04-10T22:35:41.071Z,92.80
2018-04-10T22:38:08.513Z,93.00
2018-04-10T22:40:35.987Z,93.20
2018-04-10T22:43:03.451Z,93.50
2018-04-10T22:45:30.927Z,93.50
2018-04-10T22:47:58.385Z,93.60
2018-04-10T22:50:25.952Z,93.90
2018-04-10T22:52:53.419Z,94.10
2018-04-10T22:55:20.863Z,93.80
2018-04-10T22:57:48.324Z,94.00
2018-04-10T23:00:16.618Z,94.00
2018-04-10T23:02:44.069Z,94.30
2018-04-10T23:05:12.568Z,94.60
2018-04-10T23:07:40.020Z,94.60
2018-04-10T23:10:07.487Z,94.60
2018-04-10T23:12:34.943Z,94.80
2018-04-10T23:15:02.416Z,94.90
2018-04-10T23:17:29.882Z,94.90
2018-04-10T23:19:57.337Z,95.00
2018-04-10T23:22:24.788Z,95.00
2018-04-10T23:24:52.250Z,95.00
2018-04-10T23:27:19.695Z,95.10
2018-04-10T23:29:47.153Z,95.10
2018-04-10T23:32:14.611Z,95.00
2018-04-10T23:34:42.072Z,95.00
2018-04-10T23:37:09.704Z,95.10
2018-04-10T23:39:37.148Z,95.10
2018-04-10T23:42:04.621Z,95.10
2018-04-10T23:44:32.057Z,95.20
2018-04-10T23:46:59.510Z,95.50
2018-04-10T23:49:26.987Z,95.80
2018-04-10T23:51:54.451Z,96.20
2018-04-10T23:54:21.921Z,96.20
2018-04-10T23:56:49.369Z,96.40
2018-04-10T23:59:16.822Z,96.40
